createdAt,value
2017-12-01T00:00:43.725Z,-1.20
2017-12-01T00:03:11.238Z,-1.30
2017-12-01T00:05:38.753Z,-1.20
2017-12-01T00:08:06.275Z,-1.20
2017-12-01T00:10:33.840Z,-1.10
2017-12-01T00:13:01.367Z,-1.20
2017-12-01T00:15:29.646Z,-1.30
2017-12-01T00:17:57.959Z,-1.30
2017-12-01T00:20:25.499Z,-1.20
2017-12-01T00:22:53.815Z,-1.20
2017-12-01T00:25:21.378Z,-1.20
2017-12-01T00:27:49.009Z,-1.20
2017-12-01T00:30:17.351Z,-1.10
2017-12-01T00:32:44.847Z,-1.10
2017-12-01T00:35:12.378Z,-1.20
2017-12-01T00:37:39.886Z,-1.20
2017-12-01T00:40:07.429Z,-1.30
2017-12-01T00:42:34.951Z,-1.30
2017-12-01T00:45:02.746Z,-1.40
2017-12-01T00:47:30.268Z,-1.40
2017-12-01T00:49:57.784Z,-1.40
2017-12-01T00:52:25.350Z,-1.40
2017-12-01T00:54:53.032Z,-1.50
2017-12-01T00:57:21.353Z,-1.50
2017-12-01T00:59:48.851Z,-1.50
2017-12-01T01:02:16.382Z,-1.40
2017-12-01T01:04:43.867Z,-1.40
2017-12-01T01:07:11.377Z,-1.30
2017-12-01T01:09:39.659Z,-1.20
2017-12-01T01:12:07.183Z,-1.20
2017-12-01T01:14:34.717Z,-1.10
2017-12-01T01:17:02.218Z,-1.10
2017-12-01T01:19:29.786Z,-1.10
2017-12-01T01:21:57.290Z,-1.40
2017-12-01T01:24:24.832Z,-1.20
2017-12-01T01:26:53.192Z,-1.00
2017-12-01T01:29:20.774Z,-1.10
2017-12-01T01:31:49.095Z,-0.70
2017-12-01T01:34:16.587Z,-0.80
2017-12-01T01:36:44.118Z,-0.60
2017-12-01T01:39:11.630Z,-0.60
2017-12-01T01:41:39.275Z,-0.50
2017-12-01T01:44:06.779Z,-0.50
2017-12-01T01:46:35.079Z,-0.70
2017-12-01T01:49:02.578Z,-0.70
2017-12-01T01:51:30.138Z,-0.80
2017-12-01T01:53:57.692Z,-1.00
2017-12-01T01:56:25.278Z,-1.00
2017-12-01T01:58:52.790Z,-1.00
2017-12-01T02:01:20.301Z,-0.80
2017-12-01T02:03:47.815Z,-0.60
2017-12-01T02:06:16.075Z,-0.40
2017-12-01T02:08:43.634Z,-0.40
2017-12-01T02:11:11.122Z,-0.50
2017-12-01T02:13:39.401Z,-0.90
2017-12-01T02:16:07.685Z,-1.00
2017-12-01T02:18:35.221Z,-1.00
2017-12-01T02:21:02.721Z,-1.00
2017-12-01T02:23:30.242Z,-1.00
2017-12-01T02:25:58.090Z,-1.00
2017-12-01T02:28:25.597Z,-0.90
2017-12-01T02:30:53.889Z,-0.90
2017-12-01T02:33:22.635Z,-0.80
2017-12-01T02:35:50.159Z,-0.80
2017-12-01T02:38:17.672Z,-0.80
2017-12-01T02:40:45.199Z,-0.80
2017-12-01T02:43:12.722Z,-0.70
2017-12-01T02:45:41.026Z,-0.60
2017-12-01T02:48:08.550Z,-0.60
2017-12-01T02:50:36.146Z,-0.50
2017-12-01T02:53:04.475Z,-0.30
2017-12-01T02:55:31.977Z,-0.40
2017-12-01T02:57:59.530Z,-0.20
2017-12-01T03:00:27.807Z,0.00
2017-12-01T03:02:55.321Z,0.00
2017-12-01T03:05:22.843Z,0.10
2017-12-01T03:07:50.367Z,0.30
2017-12-01T03:10:17.893Z,0.30
2017-12-01T03:12:45.425Z,0.40
2017-12-01T03:15:12.971Z,0.40
2017-12-01T03:17:40.462Z,0.50
2017-12-01T03:20:07.985Z,0.60
2017-12-01T03:22:35.478Z,0.60
2017-12-01T03:25:03.006Z,0.60
2017-12-01T03:27:30.506Z,0.70
2017-12-01T03:29:58.222Z,0.80
2017-12-01T03:32:26.301Z,0.80
2017-12-01T03:34:53.808Z,0.90
2017-12-01T03:37:21.326Z,1.00
2017-12-01T03:39:48.846Z,1.00
2017-12-01T03:42:16.342Z,1.00
2017-12-01T03:44:43.880Z,1.00
2017-12-01T03:47:12.169Z,1.10
2017-12-01T03:49:40.624Z,1.10
2017-12-01T03:52:08.174Z,1.00
2017-12-01T03:54:35.679Z,1.20
2017-12-01T03:57:03.975Z,1.30
2017-12-01T03:59:32.254Z,1.50
2017-12-01T04:01:59.759Z,1.40
2017-12-01T04:04:27.287Z,1.50
2017-12-01T04:06:54.834Z,1.50
2017-12-01T04:09:23.117Z,1.60
2017-12-01T04:11:51.398Z,1.60
2017-12-01T04:14:19.654Z,1.50
2017-12-01T04:16:47.206Z,1.50
2017-12-01T04:19:14.804Z,1.60
2017-12-01T04:21:43.062Z,1.30
2017-12-01T04:24:10.591Z,1.30
2017-12-01T04:26:38.113Z,1.10
2017-12-01T04:29:06.403Z,0.70
2017-12-01T04:31:33.908Z,0.70
2017-12-01T04:34:01.399Z,0.70
2017-12-01T04:36:28.942Z,0.70
2017-12-01T04:38:56.480Z,0.80
2017-12-01T04:41:24.145Z,0.70
2017-12-01T04:43:51.662Z,0.40
2017-12-01T04:46:19.176Z,0.50
2017-12-01T04:48:46.724Z,0.60
2017-12-01T04:51:14.297Z,0.80
2017-12-01T04:53:41.824Z,1.10
2017-12-01T04:56:10.205Z,1.20
2017-12-01T04:58:38.503Z,1.30
2017-12-01T05:01:06.769Z,0.90
2017-12-01T05:03:35.079Z,1.00
2017-12-01T05:06:02.726Z,0.90
2017-12-01T05:08:30.999Z,1.20
2017-12-01T05:10:59.281Z,1.20
2017-12-01T05:13:27.564Z,1.40
2017-12-01T05:15:55.867Z,1.50
2017-12-01T05:18:23.412Z,1.50
2017-12-01T05:20:51.815Z,1.60
2017-12-01T05:23:19.360Z,1.60
2017-12-01T05:25:47.651Z,1.50
2017-12-01T05:28:15.209Z,1.50
2017-12-01T05:30:43.469Z,1.60
2017-12-01T05:33:10.958Z,1.60
2017-12-01T05:35:38.612Z,1.60
2017-12-01T05:38:06.907Z,1.40
2017-12-01T05:40:34.412Z,1.40
2017-12-01T05:43:01.963Z,1.50
2017-12-01T05:45:29.586Z,1.40
2017-12-01T05:47:57.910Z,1.40
2017-12-01T05:50:25.508Z,1.40
2017-12-01T05:52:53.027Z,1.40
2017-12-01T05:55:21.790Z,1.40
2017-12-01T05:57:50.092Z,1.40
2017-12-01T06:00:17.670Z,1.40
2017-12-01T06:02:45.206Z,1.30
2017-12-01T06:05:12.754Z,1.30
2017-12-01T06:07:40.317Z,1.30
2017-12-01T06:10:07.848Z,1.20
2017-12-01T06:12:35.518Z,1.20
2017-12-01T06:15:03.051Z,1.30
2017-12-01T06:17:31.026Z,1.20
2017-12-01T06:19:58.551Z,1.20
2017-12-01T06:22:26.824Z,1.20
2017-12-01T06:24:54.375Z,1.20
2017-12-01T06:27:21.875Z,1.20
2017-12-01T06:29:50.172Z,1.10
2017-12-01T06:32:17.724Z,1.10
2017-12-01T06:34:46.919Z,1.20
2017-12-01T06:37:15.190Z,1.20
2017-12-01T06:39:43.496Z,1.10
2017-12-01T06:42:11.541Z,1.10
2017-12-01T06:44:39.072Z,1.10
2017-12-01T06:47:06.608Z,0.90
2017-12-01T06:49:34.103Z,0.70
2017-12-01T06:52:01.625Z,0.80
2017-12-01T06:54:29.152Z,0.90
2017-12-01T06:56:56.698Z,0.80
2017-12-01T06:59:25.468Z,0.80
2017-12-01T07:01:52.978Z,0.80
2017-12-01T07:04:21.263Z,1.00
2017-12-01T07:06:49.541Z,1.20
2017-12-01T07:09:17.809Z,1.30
2017-12-01T07:11:45.509Z,1.30
2017-12-01T07:14:13.784Z,1.60
2017-12-01T07:16:41.280Z,1.60
2017-12-01T07:19:08.887Z,1.70
2017-12-01T07:21:36.438Z,1.70
2017-12-01T07:24:04.807Z,1.60
2017-12-01T07:26:44.299Z,1.70
2017-12-01T07:29:11.800Z,1.70
2017-12-01T07:31:39.356Z,1.70
2017-12-01T07:34:06.884Z,1.80
2017-12-01T07:36:35.166Z,1.80
2017-12-01T07:39:03.479Z,1.90
2017-12-01T07:41:30.975Z,1.90
2017-12-01T07:44:01.113Z,1.90
2017-12-01T07:46:28.678Z,1.80
2017-12-01T07:48:56.207Z,1.90
2017-12-01T07:51:23.746Z,2.10
2017-12-01T07:53:51.248Z,2.10
2017-12-01T07:56:18.906Z,2.10
2017-12-01T07:58:46.460Z,2.00
2017-12-01T08:01:13.967Z,1.70
2017-12-01T08:03:42.232Z,1.80
2017-12-01T08:06:09.818Z,1.80
2017-12-01T08:08:38.090Z,2.00
2017-12-01T08:11:05.874Z,2.00
2017-12-01T08:13:34.185Z,2.10
2017-12-01T08:16:13.525Z,2.00
2017-12-01T08:18:49.080Z,2.00
2017-12-01T08:21:21.344Z,1.70
2017-12-01T08:24:00.814Z,1.80
2017-12-01T08:26:29.151Z,1.90
2017-12-01T08:28:56.646Z,1.90
2017-12-01T08:31:24.187Z,1.80
2017-12-01T08:33:51.746Z,1.90
2017-12-01T08:36:20.036Z,2.40
2017-12-01T08:38:47.523Z,2.40
2017-12-01T08:41:15.618Z,2.50
2017-12-01T08:43:43.110Z,2.60
2017-12-01T08:46:10.667Z,2.70
2017-12-01T08:48:38.926Z,2.90
2017-12-01T08:51:06.429Z,2.80
2017-12-01T08:53:33.979Z,3.00
2017-12-01T08:56:02.286Z,3.00
2017-12-01T08:58:29.791Z,3.00
2017-12-01T09:00:57.292Z,3.20
2017-12-01T09:03:24.837Z,3.10
2017-12-01T09:05:52.365Z,2.90
2017-12-01T09:08:19.904Z,2.80
2017-12-01T09:10:47.642Z,2.60
2017-12-01T09:13:15.946Z,2.90
2017-12-01T09:15:43.442Z,2.90
2017-12-01T09:18:11.029Z,2.90
2017-12-01T09:20:38.687Z,2.70
2017-12-01T09:23:06.197Z,2.70
2017-12-01T09:25:33.750Z,2.50
2017-12-01T09:28:02.003Z,2.60
2017-12-01T09:30:29.553Z,2.60
2017-12-01T09:32:57.094Z,2.90
2017-12-01T09:35:24.644Z,3.10
2017-12-01T09:37:52.148Z,2.90
2017-12-01T09:40:19.771Z,3.00
2017-12-01T09:42:47.308Z,2.90
2017-12-01T09:45:15.567Z,2.80
2017-12-01T09:47:43.885Z,3.20
2017-12-01T09:50:11.427Z,3.20
2017-12-01T09:52:39.767Z,4.00
2017-12-01T09:55:07.270Z,4.00
2017-12-01T09:57:35.540Z,4.70
2017-12-01T10:00:03.089Z,4.60
2017-12-01T10:02:30.790Z,4.80
2017-12-01T10:04:59.110Z,5.20
2017-12-01T10:07:26.604Z,5.20
2017-12-01T10:09:54.116Z,5.20
2017-12-01T10:12:21.671Z,5.10
2017-12-01T10:14:49.316Z,5.00
2017-12-01T10:17:17.591Z,5.00
2017-12-01T10:19:45.142Z,5.00
2017-12-01T10:22:12.699Z,4.80
2017-12-01T10:24:40.258Z,4.70
2017-12-01T10:27:07.769Z,4.80
2017-12-01T10:29:36.041Z,4.80
2017-12-01T10:32:04.330Z,4.70
2017-12-01T10:34:32.596Z,4.70
2017-12-01T10:37:00.166Z,4.70
2017-12-01T10:39:28.522Z,4.80
2017-12-01T10:41:56.206Z,4.80
2017-12-01T10:44:23.704Z,5.10
2017-12-01T10:46:51.222Z,5.30
2017-12-01T10:49:18.748Z,5.50
2017-12-01T10:51:46.238Z,5.70
2017-12-01T10:54:13.766Z,5.80
2017-12-01T10:56:41.388Z,5.80
2017-12-01T10:59:08.987Z,5.80
2017-12-01T11:01:36.486Z,5.90
2017-12-01T11:04:04.022Z,5.80
2017-12-01T11:06:31.733Z,5.60
2017-12-01T11:08:59.255Z,5.30
2017-12-01T11:11:26.886Z,5.00
2017-12-01T11:13:55.199Z,5.40
2017-12-01T11:16:22.742Z,5.40
2017-12-01T11:18:50.474Z,5.40
2017-12-01T11:21:18.001Z,5.20
2017-12-01T11:23:45.504Z,5.00
2017-12-01T11:26:13.045Z,5.00
2017-12-01T11:28:40.574Z,4.80
2017-12-01T11:31:08.117Z,4.60
2017-12-01T11:33:36.390Z,4.30
2017-12-01T11:36:03.926Z,4.30
2017-12-01T11:38:31.415Z,4.30
2017-12-01T11:40:58.919Z,4.10
2017-12-01T11:43:26.527Z,4.30
2017-12-01T11:45:54.031Z,4.20
2017-12-01T11:48:21.602Z,4.00
2017-12-01T11:50:49.102Z,3.90
2017-12-01T11:53:16.893Z,4.10
2017-12-01T11:55:44.439Z,4.10
2017-12-01T11:58:11.966Z,4.30
2017-12-01T12:00:45.218Z,4.40
2017-12-01T12:03:12.747Z,4.70
2017-12-01T12:05:40.242Z,4.30
2017-12-01T12:08:07.743Z,4.00
2017-12-01T12:10:35.371Z,3.90
2017-12-01T12:13:02.948Z,4.10
2017-12-01T12:15:31.210Z,4.30
2017-12-01T12:17:58.918Z,4.30
2017-12-01T12:20:27.171Z,4.10
2017-12-01T12:22:54.712Z,4.10
2017-12-01T12:25:23.079Z,4.10
2017-12-01T12:27:50.740Z,4.10
2017-12-01T12:30:18.381Z,4.10
2017-12-01T12:32:45.940Z,4.10
2017-12-01T12:35:14.204Z,4.20
2017-12-01T12:37:42.468Z,4.30
2017-12-01T12:40:10.005Z,4.30
2017-12-01T12:42:37.573Z,4.50
2017-12-01T12:45:05.119Z,4.60
2017-12-01T12:47:32.638Z,4.80
2017-12-01T12:50:01.195Z,4.80
2017-12-01T12:52:28.855Z,4.90
2017-12-01T12:54:56.400Z,5.00
2017-12-01T12:57:23.951Z,5.00
2017-12-01T12:59:51.450Z,4.90
2017-12-01T13:02:18.951Z,4.70
2017-12-01T13:04:47.259Z,4.70
2017-12-01T13:07:14.823Z,4.80
2017-12-01T13:09:42.654Z,4.80
2017-12-01T13:12:10.149Z,4.60
2017-12-01T13:14:37.690Z,4.60
2017-12-01T13:17:05.952Z,4.00
2017-12-01T13:19:33.492Z,4.00
2017-12-01T13:22:01.062Z,4.10
2017-12-01T13:24:28.566Z,4.20
2017-12-01T13:26:56.876Z,4.00
2017-12-01T13:29:24.379Z,4.00
2017-12-01T13:31:51.891Z,3.80
2017-12-01T13:34:19.451Z,3.30
2017-12-01T13:36:47.714Z,3.30
2017-12-01T13:39:15.898Z,3.30
2017-12-01T13:41:44.199Z,3.00
2017-12-01T13:44:11.702Z,2.90
2017-12-01T13:46:39.238Z,3.10
2017-12-01T13:49:06.735Z,3.10
2017-12-01T13:51:34.299Z,3.20
2017-12-01T13:54:01.819Z,2.90
2017-12-01T13:56:29.582Z,3.00
2017-12-01T13:58:57.077Z,2.80
2017-12-01T14:01:24.620Z,3.00
2017-12-01T14:03:52.130Z,3.10
2017-12-01T14:06:19.690Z,3.20
2017-12-01T14:08:47.190Z,3.20
2017-12-01T14:11:16.079Z,3.00
2017-12-01T14:13:44.345Z,2.90
2017-12-01T14:16:11.867Z,3.00
2017-12-01T14:18:39.403Z,3.00
2017-12-01T14:21:07.011Z,3.00
2017-12-01T14:23:34.771Z,3.10
2017-12-01T14:26:02.328Z,3.30
2017-12-01T14:28:29.851Z,3.40
2017-12-01T14:30:58.147Z,3.20
2017-12-01T14:33:25.660Z,3.20
2017-12-01T14:35:53.160Z,3.20
2017-12-01T14:38:21.438Z,3.30
2017-12-01T14:40:49.698Z,3.40
2017-12-01T14:43:17.223Z,3.40
2017-12-01T14:45:44.716Z,3.50
2017-12-01T14:48:12.232Z,3.60
2017-12-01T14:50:39.754Z,3.50
2017-12-01T14:53:07.359Z,3.40
2017-12-01T14:55:34.897Z,3.20
2017-12-01T14:58:03.210Z,2.90
2017-12-01T15:00:30.882Z,2.80
2017-12-01T15:02:58.541Z,2.70
2017-12-01T15:05:26.047Z,2.50
2017-12-01T15:07:53.575Z,2.30
2017-12-01T15:10:21.185Z,2.10
2017-12-01T15:12:48.735Z,2.00
2017-12-01T15:15:16.270Z,1.70
2017-12-01T15:17:43.780Z,1.40
2017-12-01T15:20:11.302Z,1.30
2017-12-01T15:22:38.899Z,1.20
2017-12-01T15:25:06.398Z,1.10
2017-12-01T15:27:34.707Z,1.00
2017-12-01T15:30:02.344Z,1.00
2017-12-01T15:32:30.650Z,0.80
2017-12-01T15:34:58.151Z,0.80
2017-12-01T15:37:25.671Z,0.70
2017-12-01T15:39:53.261Z,0.60
2017-12-01T15:42:20.807Z,0.40
2017-12-01T15:44:48.318Z,0.20
2017-12-01T15:47:16.018Z,-0.10
2017-12-01T15:49:44.449Z,-0.30
2017-12-01T15:52:11.972Z,-0.30
2017-12-01T15:54:39.524Z,-0.40
2017-12-01T15:57:07.778Z,-0.50
2017-12-01T15:59:36.071Z,-0.60
2017-12-01T16:02:03.665Z,-0.60
2017-12-01T16:04:31.186Z,-0.70
2017-12-01T16:06:58.731Z,-0.50
2017-12-01T16:09:26.443Z,-0.40
2017-12-01T16:11:54.702Z,-0.10
2017-12-01T16:14:22.286Z,0.00
2017-12-01T16:16:50.590Z,0.10
2017-12-01T16:19:18.155Z,0.10
2017-12-01T16:21:45.659Z,0.10
2017-12-01T16:24:13.291Z,0.20
2017-12-01T16:26:40.855Z,0.10
2017-12-01T16:29:08.526Z,0.10
2017-12-01T16:31:36.011Z,0.20
2017-12-01T16:34:03.643Z,0.30
2017-12-01T16:36:31.186Z,0.30
2017-12-01T16:38:59.463Z,0.20
2017-12-01T16:41:27.251Z,0.20
2017-12-01T16:43:54.769Z,0.00
2017-12-01T16:46:22.366Z,-0.20
2017-12-01T16:48:50.667Z,-0.30
2017-12-01T16:51:18.170Z,-0.30
2017-12-01T16:53:45.682Z,-0.20
2017-12-01T16:56:13.437Z,-0.10
2017-12-01T16:58:41.706Z,0.30
2017-12-01T17:01:09.265Z,0.30
2017-12-01T17:03:36.758Z,0.40
2017-12-01T17:06:05.027Z,0.50
2017-12-01T17:08:33.358Z,0.50
2017-12-01T17:11:00.869Z,0.50
2017-12-01T17:13:29.169Z,0.70
2017-12-01T17:15:56.658Z,0.60
2017-12-01T17:18:24.203Z,0.70
2017-12-01T17:20:51.730Z,0.80
2017-12-01T17:23:19.231Z,1.00
2017-12-01T17:25:46.772Z,1.10
2017-12-01T17:28:15.052Z,1.20
2017-12-01T17:30:43.353Z,1.20
2017-12-01T17:33:10.842Z,1.20
2017-12-01T17:35:38.419Z,1.30
2017-12-01T17:38:05.941Z,1.50
2017-12-01T17:40:33.614Z,1.50
2017-12-01T17:43:01.111Z,1.50
2017-12-01T17:45:28.677Z,1.50
2017-12-01T17:47:56.173Z,1.50
2017-12-01T17:50:24.450Z,1.70
2017-12-01T17:52:51.982Z,1.60
2017-12-01T17:55:19.478Z,1.50
2017-12-01T17:57:47.005Z,1.50
2017-12-01T18:00:14.594Z,1.50
2017-12-01T18:02:42.143Z,1.60
2017-12-01T18:05:09.757Z,1.60
2017-12-01T18:07:37.311Z,1.50
2017-12-01T18:10:05.690Z,1.50
2017-12-01T18:12:34.015Z,1.40
2017-12-01T18:15:01.580Z,1.30
2017-12-01T18:17:29.126Z,1.40
2017-12-01T18:19:56.614Z,1.30
2017-12-01T18:22:24.111Z,1.20
2017-12-01T18:24:51.674Z,1.20
2017-12-01T18:27:19.184Z,1.20
2017-12-01T18:29:46.706Z,1.20
2017-12-01T18:32:14.256Z,1.20
2017-12-01T18:34:42.806Z,1.10
2017-12-01T18:37:10.422Z,1.10
2017-12-01T18:39:37.943Z,1.00
2017-12-01T18:42:05.466Z,1.10
2017-12-01T18:44:33.729Z,1.20
2017-12-01T18:47:01.229Z,1.20
2017-12-01T18:49:28.753Z,1.00
2017-12-01T18:51:56.271Z,1.00
2017-12-01T18:54:23.796Z,1.00
2017-12-01T18:56:52.111Z,1.00
2017-12-01T18:59:19.685Z,1.00
2017-12-01T19:01:47.199Z,0.80
2017-12-01T19:04:15.526Z,0.80
2017-12-01T19:06:43.019Z,0.80
2017-12-01T19:09:10.567Z,0.90
2017-12-01T19:11:38.089Z,0.80
2017-12-01T19:14:06.391Z,0.70
2017-12-01T19:16:33.921Z,0.60
2017-12-01T19:19:02.202Z,0.70
2017-12-01T19:21:30.631Z,0.70
2017-12-01T19:23:58.122Z,0.70
2017-12-01T19:26:25.679Z,0.90
2017-12-01T19:28:53.178Z,0.70
2017-12-01T19:31:21.503Z,0.30
2017-12-01T19:33:49.054Z,0.30
2017-12-01T19:36:17.296Z,0.10
2017-12-01T19:38:44.836Z,0.00
2017-12-01T19:41:12.397Z,0.30
2017-12-01T19:43:39.911Z,0.50
2017-12-01T19:46:07.408Z,0.70
2017-12-01T19:48:34.953Z,0.80
2017-12-01T19:51:02.459Z,0.90
2017-12-01T19:53:29.970Z,1.00
2017-12-01T19:55:57.609Z,1.10
2017-12-01T19:58:25.979Z,1.20
2017-12-01T20:00:53.467Z,1.10
2017-12-01T20:03:20.955Z,1.30
2017-12-01T20:05:48.488Z,1.40
2017-12-01T20:08:16.753Z,1.70
2017-12-01T20:10:44.294Z,1.70
2017-12-01T20:13:11.787Z,1.80
2017-12-01T20:15:39.276Z,1.90
2017-12-01T20:18:06.825Z,2.10
2017-12-01T20:20:35.130Z,1.70
2017-12-01T20:23:02.679Z,1.70
2017-12-01T20:25:30.984Z,1.60
2017-12-01T20:27:58.526Z,1.60
2017-12-01T20:30:26.098Z,1.50
2017-12-01T20:32:53.670Z,1.50
2017-12-01T20:35:21.172Z,1.60
2017-12-01T20:37:48.701Z,1.70
2017-12-01T20:40:16.264Z,1.90
2017-12-01T20:42:43.842Z,2.00
2017-12-01T20:45:11.981Z,1.90
2017-12-01T20:47:40.255Z,1.60
2017-12-01T20:50:08.562Z,1.70
2017-12-01T20:52:36.055Z,1.70
2017-12-01T20:55:03.586Z,1.80
2017-12-01T20:57:31.219Z,1.90
2017-12-01T20:59:58.722Z,1.90
2017-12-01T21:02:26.311Z,1.80
2017-12-01T21:04:53.811Z,1.60
2017-12-01T21:07:21.345Z,1.60
2017-12-01T21:09:49.018Z,1.60
2017-12-01T21:12:16.566Z,1.50
2017-12-01T21:14:44.059Z,1.60
2017-12-01T21:17:11.636Z,1.70
2017-12-01T21:19:39.971Z,1.80
2017-12-01T21:22:07.467Z,1.80
2017-12-01T21:24:34.986Z,2.00
2017-12-01T21:27:02.493Z,2.20
2017-12-01T21:29:29.983Z,2.30
2017-12-01T21:31:58.270Z,2.50
2017-12-01T21:34:26.631Z,2.60
2017-12-01T21:36:54.126Z,2.60
2017-12-01T21:39:21.675Z,2.70
2017-12-01T21:41:49.971Z,2.60
2017-12-01T21:44:17.499Z,2.50
2017-12-01T21:46:44.991Z,2.60
2017-12-01T21:49:12.520Z,2.70
2017-12-01T21:51:40.027Z,2.70
2017-12-01T21:54:07.630Z,2.60
2017-12-01T21:56:35.121Z,2.70
2017-12-01T21:59:03.104Z,2.70
2017-12-01T22:01:31.407Z,2.60
2017-12-01T22:03:58.916Z,2.60
2017-12-01T22:06:26.468Z,2.60
2017-12-01T22:08:53.975Z,2.50
2017-12-01T22:11:22.290Z,2.30
2017-12-01T22:13:49.807Z,2.30
2017-12-01T22:16:17.323Z,2.20
2017-12-01T22:18:44.972Z,2.10
2017-12-01T22:21:12.484Z,2.00
2017-12-01T22:23:39.999Z,1.80
2017-12-01T22:26:07.542Z,1.70
2017-12-01T22:28:35.894Z,1.50
2017-12-01T22:31:03.614Z,1.50
2017-12-01T22:33:31.105Z,1.20
2017-12-01T22:35:58.627Z,0.80
2017-12-01T22:38:26.934Z,0.40
2017-12-01T22:40:54.443Z,0.40
2017-12-01T22:43:22.100Z,0.20
2017-12-01T22:45:49.607Z,0.00
2017-12-01T22:48:17.266Z,-0.10
2017-12-01T22:50:45.550Z,0.10
2017-12-01T22:53:13.083Z,0.00
2017-12-01T22:55:40.654Z,-0.10
2017-12-01T22:58:08.319Z,-0.30
2017-12-01T23:00:36.614Z,-0.70
2017-12-01T23:03:04.914Z,-0.80
2017-12-01T23:05:32.418Z,-0.80
2017-12-01T23:07:59.925Z,-0.80
2017-12-01T23:10:28.193Z,-0.80
2017-12-01T23:12:55.697Z,-0.90
2017-12-01T23:15:23.238Z,-0.80
2017-12-01T23:17:51.547Z,-0.80
2017-12-01T23:20:19.574Z,-0.90
2017-12-01T23:22:47.107Z,-0.90
2017-12-01T23:25:14.607Z,-0.90
2017-12-01T23:27:43.463Z,-1.00
2017-12-01T23:30:11.027Z,-1.00
2017-12-01T23:32:38.530Z,-1.00
2017-12-01T23:35:06.820Z,-1.00
2017-12-01T23:37:35.267Z,-1.00
2017-12-01T23:40:02.767Z,-1.10
2017-12-01T23:42:31.090Z,-1.10
2017-12-01T23:44:58.619Z,-1.10
2017-12-01T23:47:26.951Z,-1.20
2017-12-01T23:49:54.495Z,-1.20
2017-12-01T23:52:22.001Z,-1.20
2017-12-01T23:54:49.538Z,-1.20
2017-12-01T23:57:17.051Z,-1.20
2017-12-01T23:59:45.317Z,-1.40
